createdAt,value
2019-03-30T00:01:44.601Z,5.67
2019-03-30T00:04:11.181Z,4.47
2019-03-30T00:06:37.718Z,5.30
2019-03-30T00:09:08.138Z,4.77
2019-03-30T00:11:34.653Z,5.07
2019-03-30T00:14:01.345Z,5.40
2019-03-30T00:16:27.882Z,5.43
2019-03-30T00:18:54.530Z,4.77
2019-03-30T00:21:21.088Z,4.23
2019-03-30T00:23:47.861Z,4.37
2019-03-30T00:26:14.381Z,4.73
2019-03-30T00:28:40.905Z,4.03
2019-03-30T00:31:07.456Z,4.77
2019-03-30T00:33:33.978Z,4.17
2019-03-30T00:36:00.515Z,4.87
2019-03-30T00:38:27.041Z,4.60
2019-03-30T00:40:53.572Z,4.60
2019-03-30T00:43:20.092Z,4.13
2019-03-30T00:45:46.646Z,4.40
2019-03-30T00:48:13.172Z,5.00
2019-03-30T00:50:39.874Z,3.93
2019-03-30T00:53:06.418Z,4.90
2019-03-30T00:55:33.250Z,4.30
2019-03-30T00:57:59.771Z,4.57
2019-03-30T01:00:26.333Z,4.30
2019-03-30T01:02:52.873Z,4.40
2019-03-30T01:05:19.390Z,5.27
2019-03-30T01:07:46.018Z,3.73
2019-03-30T01:10:13.605Z,4.87
2019-03-30T01:12:40.278Z,4.33
2019-03-30T01:15:07.093Z,4.00
2019-03-30T01:17:33.631Z,4.27
2019-03-30T01:20:03.149Z,3.57
2019-03-30T01:22:28.590Z,3.87
2019-03-30T01:24:55.206Z,4.17
2019-03-30T01:27:21.746Z,4.20
2019-03-30T01:29:48.284Z,4.20
2019-03-30T01:32:14.814Z,4.60
2019-03-30T01:34:41.409Z,3.57
2019-03-30T01:37:08.041Z,4.77
2019-03-30T01:39:34.590Z,4.10
2019-03-30T01:42:01.222Z,5.07
2019-03-30T01:44:27.863Z,4.37
2019-03-30T01:46:54.430Z,3.80
2019-03-30T01:49:21.048Z,4.40
2019-03-30T01:51:47.638Z,3.83
2019-03-30T01:54:14.214Z,4.33
2019-03-30T01:56:40.772Z,4.03
2019-03-30T01:59:07.325Z,4.20
2019-03-30T02:01:35.078Z,4.17
2019-03-30T02:04:01.597Z,3.93
2019-03-30T02:06:28.165Z,4.37
2019-03-30T02:08:54.739Z,4.53
2019-03-30T02:11:21.352Z,4.10
2019-03-30T02:13:47.960Z,4.80
2019-03-30T02:16:14.469Z,4.13
2019-03-30T02:18:41.098Z,4.40
2019-03-30T02:21:07.609Z,4.40
2019-03-30T02:23:34.128Z,3.63
2019-03-30T02:26:00.677Z,4.57
2019-03-30T02:28:27.248Z,4.20
2019-03-30T02:30:53.794Z,5.07
2019-03-30T02:33:20.375Z,4.63
2019-03-30T02:35:46.935Z,3.80
2019-03-30T02:38:13.454Z,4.40
2019-03-30T02:40:40.032Z,4.20
2019-03-30T02:43:06.695Z,4.60
2019-03-30T02:45:33.335Z,3.80
2019-03-30T02:47:59.914Z,5.10
2019-03-30T02:50:26.548Z,4.40
2019-03-30T02:52:53.126Z,4.13
2019-03-30T02:55:19.739Z,4.17
2019-03-30T02:57:46.258Z,4.37
2019-03-30T03:00:14.922Z,4.63
2019-03-30T03:02:41.531Z,3.83
2019-03-30T03:05:08.085Z,3.77
2019-03-30T03:07:34.823Z,4.13
2019-03-30T03:10:01.357Z,4.03
2019-03-30T03:12:27.930Z,4.17
2019-03-30T03:14:54.448Z,3.90
2019-03-30T03:17:21.039Z,4.30
2019-03-30T03:19:47.609Z,4.40
2019-03-30T03:22:14.226Z,4.43
2019-03-30T03:24:40.734Z,4.47
2019-03-30T03:27:07.266Z,3.77
2019-03-30T03:29:33.816Z,4.37
2019-03-30T03:32:00.433Z,4.70
2019-03-30T03:34:27.202Z,3.90
2019-03-30T03:36:53.794Z,3.77
2019-03-30T03:39:20.312Z,4.13
2019-03-30T03:41:47.185Z,3.83
2019-03-30T03:44:13.763Z,4.90
2019-03-30T03:46:40.181Z,4.23
2019-03-30T03:49:06.686Z,4.40
2019-03-30T03:51:33.139Z,4.87
2019-03-30T03:53:59.904Z,3.83
2019-03-30T03:56:28.047Z,4.83
2019-03-30T03:58:55.265Z,4.70
2019-03-30T04:01:22.383Z,4.17
2019-03-30T04:03:50.835Z,4.93
2019-03-30T04:06:18.332Z,3.97
2019-03-30T04:08:44.956Z,4.17
2019-03-30T04:11:12.963Z,4.20
2019-03-30T04:13:39.752Z,4.57
2019-03-30T04:16:06.587Z,5.13
2019-03-30T04:18:33.000Z,3.93
2019-03-30T04:20:59.458Z,4.27
2019-03-30T04:23:25.962Z,3.87
2019-03-30T04:25:52.390Z,3.63
2019-03-30T04:28:19.002Z,3.73
2019-03-30T04:30:45.513Z,4.03
2019-03-30T04:33:12.051Z,3.83
2019-03-30T04:35:38.573Z,5.13
2019-03-30T04:38:06.425Z,4.97
2019-03-30T04:40:32.936Z,3.90
2019-03-30T04:42:59.452Z,4.33
2019-03-30T04:45:25.972Z,4.60
2019-03-30T04:47:52.606Z,3.73
2019-03-30T04:50:19.114Z,4.37
2019-03-30T04:52:45.543Z,4.43
2019-03-30T04:55:12.054Z,4.10
2019-03-30T04:57:38.602Z,4.10
2019-03-30T05:00:05.387Z,3.67
2019-03-30T05:02:31.806Z,4.20
2019-03-30T05:04:58.399Z,4.47
2019-03-30T05:07:24.826Z,4.53
2019-03-30T05:09:51.339Z,4.33
2019-03-30T05:12:18.046Z,4.70
2019-03-30T05:14:44.594Z,4.67
2019-03-30T05:17:11.234Z,3.97
2019-03-30T05:19:37.946Z,5.10
2019-03-30T05:22:12.011Z,4.27
2019-03-30T05:24:33.242Z,3.47
2019-03-30T05:26:59.915Z,3.87
2019-03-30T05:29:26.342Z,4.37
2019-03-30T05:31:52.976Z,5.23
2019-03-30T05:34:19.503Z,3.67
2019-03-30T05:36:46.051Z,4.57
2019-03-30T05:39:13.982Z,5.13
2019-03-30T05:41:40.443Z,4.53
2019-03-30T05:44:06.963Z,4.37
2019-03-30T05:46:33.365Z,4.40
2019-03-30T05:48:59.913Z,4.27
2019-03-30T05:51:26.422Z,5.13
2019-03-30T05:53:53.652Z,5.00
2019-03-30T05:56:20.179Z,5.23
2019-03-30T05:58:46.756Z,4.70
2019-03-30T06:01:13.384Z,4.53
2019-03-30T06:03:43.144Z,4.97
2019-03-30T06:06:09.703Z,4.67
2019-03-30T06:08:36.335Z,4.93
2019-03-30T06:11:03.280Z,4.93
2019-03-30T06:13:30.078Z,4.67
2019-03-30T06:15:59.508Z,4.53
2019-03-30T06:18:26.342Z,4.90
2019-03-30T06:21:05.715Z,4.43
2019-03-30T06:23:32.567Z,3.73
2019-03-30T06:25:59.274Z,4.27
2019-03-30T06:28:25.758Z,5.43
2019-03-30T06:30:52.183Z,4.50
2019-03-30T06:33:18.701Z,4.63
2019-03-30T06:35:45.235Z,5.93
2019-03-30T06:38:11.745Z,4.93
2019-03-30T06:40:38.178Z,5.23
2019-03-30T06:43:07.568Z,4.53
2019-03-30T06:45:33.067Z,5.27
2019-03-30T06:47:59.485Z,5.67
2019-03-30T06:50:26.093Z,5.20
2019-03-30T06:52:58.280Z,5.67
2019-03-30T06:55:21.005Z,5.37
2019-03-30T06:57:47.556Z,5.90
2019-03-30T07:00:14.242Z,5.67
2019-03-30T07:02:41.292Z,5.33
2019-03-30T07:05:07.850Z,5.60
2019-03-30T07:07:36.174Z,5.00
2019-03-30T07:10:03.187Z,5.40
2019-03-30T07:12:31.222Z,6.40
2019-03-30T07:14:59.545Z,6.20
2019-03-30T07:17:26.093Z,5.53
2019-03-30T07:19:52.840Z,6.10
2019-03-30T07:22:19.357Z,5.13
2019-03-30T07:24:45.942Z,5.17
2019-03-30T07:27:12.466Z,5.67
2019-03-30T07:29:39.050Z,5.20
2019-03-30T07:32:05.573Z,6.47
2019-03-30T07:34:32.104Z,5.80
2019-03-30T07:36:59.536Z,5.67
2019-03-30T07:39:26.141Z,5.53
2019-03-30T07:41:52.815Z,5.83
2019-03-30T07:44:19.330Z,6.80
2019-03-30T07:46:45.913Z,6.30
2019-03-30T07:49:12.487Z,5.80
2019-03-30T07:51:39.036Z,7.03
2019-03-30T07:54:05.614Z,6.57
2019-03-30T07:56:32.117Z,6.10
2019-03-30T07:58:58.541Z,7.03
2019-03-30T08:01:25.099Z,6.20
2019-03-30T08:03:51.621Z,5.80
2019-03-30T08:06:18.133Z,6.67
2019-03-30T08:08:44.666Z,7.07
2019-03-30T08:11:14.265Z,7.07
2019-03-30T08:13:39.822Z,5.80
2019-03-30T08:16:06.329Z,6.27
2019-03-30T08:18:32.898Z,6.77
2019-03-30T08:20:59.441Z,6.57
2019-03-30T08:23:39.564Z,6.20
2019-03-30T08:25:54.342Z,7.50
2019-03-30T08:28:20.866Z,6.50
2019-03-30T08:30:47.434Z,8.33
2019-03-30T08:33:13.953Z,7.63
2019-03-30T08:35:40.728Z,7.20
2019-03-30T08:38:07.271Z,6.47
2019-03-30T08:40:33.783Z,8.10
2019-03-30T08:43:00.217Z,7.33
2019-03-30T08:45:26.636Z,7.67
2019-03-30T08:47:53.147Z,7.97
2019-03-30T08:50:19.653Z,7.87
2019-03-30T08:52:46.183Z,8.33
2019-03-30T08:55:12.689Z,8.23
2019-03-30T08:57:39.308Z,8.27
2019-03-30T09:00:05.999Z,7.63
2019-03-30T09:02:32.634Z,7.40
2019-03-30T09:04:59.171Z,7.53
2019-03-30T09:07:25.785Z,7.30
2019-03-30T09:09:52.305Z,6.37
2019-03-30T09:12:18.825Z,6.57
2019-03-30T09:14:45.238Z,7.33
2019-03-30T09:17:12.101Z,6.93
2019-03-30T09:19:38.657Z,7.53
2019-03-30T09:22:05.175Z,6.97
2019-03-30T09:24:31.582Z,6.73
2019-03-30T09:26:58.099Z,7.20
2019-03-30T09:29:24.635Z,8.03
2019-03-30T09:31:51.166Z,8.13
2019-03-30T09:34:17.733Z,8.07
2019-03-30T09:36:44.247Z,7.93
2019-03-30T09:39:11.136Z,7.03
2019-03-30T09:41:37.559Z,7.93
2019-03-30T09:44:04.157Z,7.17
2019-03-30T09:46:30.686Z,7.33
2019-03-30T09:48:57.313Z,7.70
2019-03-30T09:51:23.727Z,7.50
2019-03-30T09:53:50.262Z,6.93
2019-03-30T09:56:16.818Z,6.90
2019-03-30T09:58:43.233Z,6.77
2019-03-30T10:01:09.770Z,7.23
2019-03-30T10:03:36.186Z,7.40
2019-03-30T10:06:02.697Z,7.33
2019-03-30T10:08:29.131Z,11.87
2019-03-30T10:10:55.746Z,7.70
2019-03-30T10:13:22.290Z,7.47
2019-03-30T10:15:48.713Z,7.57
2019-03-30T10:18:15.275Z,7.43
2019-03-30T10:20:41.793Z,7.43
2019-03-30T10:23:08.299Z,7.83
2019-03-30T10:25:34.910Z,7.00
2019-03-30T10:28:01.430Z,6.50
2019-03-30T10:30:28.005Z,7.50
2019-03-30T10:32:54.525Z,7.30
2019-03-30T10:35:21.059Z,7.03
2019-03-30T10:37:47.586Z,6.80
2019-03-30T10:40:14.108Z,7.47
2019-03-30T10:42:40.666Z,6.40
2019-03-30T10:45:07.473Z,6.33
2019-03-30T10:47:33.979Z,7.27
2019-03-30T10:50:00.603Z,7.43
2019-03-30T10:52:27.208Z,7.20
2019-03-30T10:54:53.638Z,6.87
2019-03-30T10:57:20.195Z,7.13
2019-03-30T10:59:46.705Z,7.37
2019-03-30T11:02:13.347Z,6.80
2019-03-30T11:04:39.884Z,7.77
2019-03-30T11:07:06.458Z,7.70
2019-03-30T11:09:32.878Z,7.50
2019-03-30T11:11:59.449Z,6.47
2019-03-30T11:14:25.985Z,6.63
2019-03-30T11:16:52.430Z,6.60
2019-03-30T11:19:18.965Z,7.23
2019-03-30T11:21:45.526Z,6.63
2019-03-30T11:24:12.122Z,6.60
2019-03-30T11:26:38.658Z,7.37
2019-03-30T11:29:05.183Z,6.70
2019-03-30T11:31:31.622Z,6.83
2019-03-30T11:33:58.154Z,7.37
2019-03-30T11:36:24.849Z,7.83
2019-03-30T11:38:51.282Z,7.43
2019-03-30T11:41:17.719Z,7.70
2019-03-30T11:43:44.262Z,6.90
2019-03-30T11:46:10.783Z,7.90
2019-03-30T11:48:37.761Z,7.07
2019-03-30T11:51:04.475Z,7.00
2019-03-30T11:53:31.010Z,6.73
2019-03-30T11:55:57.634Z,9.13
2019-03-30T11:58:24.219Z,7.83
2019-03-30T12:00:50.750Z,7.70
2019-03-30T12:03:17.321Z,7.47
2019-03-30T12:05:43.845Z,7.70
2019-03-30T12:08:10.367Z,7.00
2019-03-30T12:10:36.820Z,7.00
2019-03-30T12:13:03.334Z,7.23
2019-03-30T12:15:29.874Z,7.13
2019-03-30T12:17:56.466Z,7.70
2019-03-30T12:20:23.034Z,6.93
2019-03-30T12:22:49.637Z,7.17
2019-03-30T12:25:16.179Z,6.77
2019-03-30T12:27:45.311Z,7.10
2019-03-30T12:30:11.988Z,7.90
2019-03-30T12:32:38.715Z,7.23
2019-03-30T12:35:05.474Z,7.50
2019-03-30T12:37:31.994Z,7.20
2019-03-30T12:39:58.538Z,7.00
2019-03-30T12:42:25.062Z,7.97
2019-03-30T12:44:51.585Z,7.87
2019-03-30T12:47:18.115Z,7.20
2019-03-30T12:49:45.404Z,7.73
2019-03-30T12:52:12.094Z,9.07
2019-03-30T12:54:38.651Z,8.20
2019-03-30T12:57:05.090Z,8.37
2019-03-30T12:59:31.670Z,8.00
2019-03-30T13:01:58.401Z,8.13
2019-03-30T13:04:24.951Z,7.33
2019-03-30T13:06:51.381Z,7.53
2019-03-30T13:09:17.802Z,7.07
2019-03-30T13:11:44.334Z,6.90
2019-03-30T13:14:10.770Z,7.03
2019-03-30T13:16:37.206Z,7.93
2019-03-30T13:19:03.746Z,7.77
2019-03-30T13:21:32.258Z,8.33
2019-03-30T13:23:58.645Z,7.63
2019-03-30T13:26:25.324Z,7.80
2019-03-30T13:28:51.909Z,7.77
2019-03-30T13:31:18.635Z,7.10
2019-03-30T13:33:45.154Z,6.93
2019-03-30T13:36:11.962Z,8.83
2019-03-30T13:38:38.595Z,8.20
2019-03-30T13:41:05.214Z,8.60
2019-03-30T13:43:31.886Z,7.43
2019-03-30T13:45:58.500Z,8.27
2019-03-30T13:48:25.101Z,8.20
2019-03-30T13:50:51.676Z,7.87
2019-03-30T13:53:18.308Z,8.50
2019-03-30T13:55:44.726Z,7.93
2019-03-30T13:58:11.290Z,7.50
2019-03-30T14:00:37.851Z,8.10
2019-03-30T14:03:04.371Z,7.47
2019-03-30T14:05:30.912Z,8.27
2019-03-30T14:07:57.334Z,7.30
2019-03-30T14:10:23.858Z,7.17
2019-03-30T14:12:50.308Z,7.17
2019-03-30T14:15:16.869Z,8.07
2019-03-30T14:17:43.571Z,8.10
2019-03-30T14:20:10.150Z,7.37
2019-03-30T14:22:36.683Z,7.03
2019-03-30T14:25:03.276Z,8.00
2019-03-30T14:27:29.802Z,7.67
2019-03-30T14:29:56.334Z,11.50
2019-03-30T14:32:22.874Z,9.47
2019-03-30T14:34:49.504Z,8.40
2019-03-30T14:37:16.130Z,7.90
2019-03-30T14:39:43.152Z,7.47
2019-03-30T14:42:09.762Z,7.53
2019-03-30T14:44:36.294Z,7.37
2019-03-30T14:47:03.040Z,7.70
2019-03-30T14:49:29.609Z,8.00
2019-03-30T14:51:56.201Z,6.50
2019-03-30T14:54:22.794Z,9.77
2019-03-30T14:56:49.318Z,7.57
2019-03-30T14:59:16.942Z,7.20
2019-03-30T15:01:43.461Z,6.83
2019-03-30T15:04:10.350Z,7.63
2019-03-30T15:06:36.947Z,6.87
2019-03-30T15:09:04.399Z,7.60
2019-03-30T15:11:31.004Z,7.43
2019-03-30T15:13:57.635Z,8.23
2019-03-30T15:16:24.254Z,7.60
2019-03-30T15:18:50.789Z,7.07
2019-03-30T15:21:17.375Z,6.90
2019-03-30T15:23:44.101Z,6.87
2019-03-30T15:26:10.724Z,7.20
2019-03-30T15:28:37.414Z,8.00
2019-03-30T15:31:03.978Z,7.63
2019-03-30T15:33:30.562Z,10.20
2019-03-30T15:35:57.138Z,7.87
2019-03-30T15:38:24.794Z,6.70
2019-03-30T15:40:51.326Z,8.10
2019-03-30T15:43:17.905Z,7.90
2019-03-30T15:45:44.338Z,7.13
2019-03-30T15:48:11.154Z,7.90
2019-03-30T15:50:37.680Z,7.73
2019-03-30T15:53:04.375Z,7.90
2019-03-30T15:55:30.808Z,8.70
2019-03-30T15:57:57.451Z,8.80
2019-03-30T16:00:24.086Z,9.67
2019-03-30T16:02:50.617Z,8.77
2019-03-30T16:05:17.217Z,7.27
2019-03-30T16:07:43.814Z,7.77
2019-03-30T16:10:10.771Z,7.47
2019-03-30T16:12:37.276Z,7.73
2019-03-30T16:15:04.018Z,7.37
2019-03-30T16:17:30.675Z,7.80
2019-03-30T16:19:57.385Z,8.70
2019-03-30T16:22:23.888Z,8.40
2019-03-30T16:24:50.455Z,7.87
2019-03-30T16:27:28.290Z,7.90
2019-03-30T16:29:45.618Z,8.33
2019-03-30T16:32:12.246Z,7.47
2019-03-30T22:20:48.828Z,9.93
2019-03-30T22:23:17.081Z,7.87
2019-03-30T22:25:44.421Z,5.73
2019-03-30T22:28:12.706Z,6.20
2019-03-30T22:30:40.054Z,4.63
2019-03-30T22:33:07.350Z,4.50
2019-03-30T22:35:34.571Z,7.03
2019-03-30T22:38:01.791Z,7.60
2019-03-30T22:40:29.166Z,6.67
2019-03-30T22:42:56.422Z,8.37
2019-03-30T22:45:23.714Z,7.50
2019-03-30T22:47:50.987Z,5.47
2019-03-30T22:50:18.208Z,4.97
2019-03-30T22:52:45.485Z,4.80
2019-03-30T22:55:12.885Z,4.20
2019-03-30T22:57:40.113Z,4.87
2019-03-30T23:00:08.997Z,4.83
2019-03-30T23:02:36.302Z,4.50
2019-03-30T23:05:03.801Z,4.70
2019-03-30T23:07:30.929Z,3.70
2019-03-30T23:09:58.042Z,5.53
2019-03-30T23:12:25.230Z,4.50
2019-03-30T23:14:52.417Z,4.03
2019-03-30T23:17:19.688Z,3.90
2019-03-30T23:19:46.887Z,5.17
2019-03-30T23:22:15.230Z,4.33
2019-03-30T23:24:42.566Z,6.10
2019-03-30T23:27:09.796Z,6.30
2019-03-30T23:29:37.011Z,4.70
2019-03-30T23:32:04.318Z,5.10
2019-03-30T23:34:31.518Z,4.60
2019-03-30T23:36:58.700Z,4.17
2019-03-30T23:39:25.891Z,4.37
2019-03-30T23:41:53.107Z,4.00
2019-03-30T23:44:20.308Z,5.13
2019-03-30T23:46:47.647Z,4.17
2019-03-30T23:49:14.854Z,4.40
2019-03-30T23:51:42.056Z,4.47
2019-03-30T23:54:10.982Z,6.10
2019-03-30T23:56:38.196Z,4.33
2019-03-30T23:59:05.353Z,4.97
